Data for 03/22/2009

Time Sea-Level Adjusted Pressure Absolute Pressure Temperature Relative Humidity Dew Point   
(mb) (inHg) (mb) (inHg) (C) (F) (%) (C) (F)
00:05 1007 29.74 837 24.72 7.5 45.4 64 1 33.9
00:10 1007 29.74 836 24.69 7.7 45.8 65 1.5 34.7
00:15 1007 29.74 836 24.69 7.6 45.7 66 1.6 35
00:20 1007 29.74 836 24.69 7.3 45.1 68 1.8 35.3
00:25 1007 29.74 836 24.69 7 44.7 69 1.8 35.3
00:30 1007 29.74 836 24.69 7.1 44.7 68 1.6 34.9
00:35 1007 29.74 836 24.69 7.3 45.1 66 1.3 34.3
00:40 1006 29.71 836 24.69 7.3 45.1 68 1.8 35.2
00:45 1006 29.71 835 24.66 6.8 44.3 69 1.6 34.9
00:50 1006 29.71 835 24.66 6.8 44.2 69 1.4 34.6
00:55 1006 29.71 835 24.66 6.6 43.8 69 1.3 34.3
01:00 1006 29.71 835 24.66 6.7 44.1 68 1.2 34.1
01:05 1006 29.71 835 24.66 6.9 44.3 67 1.2 34.2
01:10 1006 29.71 835 24.66 6.7 44 67 1.1 34
01:15 1006 29.71 835 24.66 6.5 43.7 67 0.8 33.5
01:20 1006 29.71 835 24.66 6.5 43.8 67 1 33.8
01:25 1006 29.71 835 24.66 6.2 43.2 68 0.8 33.5
01:30 1006 29.71 835 24.66 6.2 43.2 68 0.8 33.5
01:35 1006 29.71 835 24.66 6 42.8 69 0.7 33.2
01:40 1006 29.71 835 24.66 6.1 43 68 0.7 33.3
01:45 1006 29.71 835 24.66 6.3 43.4 67 0.6 33
01:50 1006 29.71 835 24.66 6.5 43.8 66 0.6 33
01:55 1006 29.71 835 24.66 6.5 43.6 63 -0 31.9
02:00 1006 29.71 835 24.66 7.2 44.9 63 0.6 33.1
02:05 1006 29.71 835 24.66 7 44.6 61 -0 31.9
02:10 1006 29.71 835 24.66 7.5 45.5 63 0.9 33.6
02:15 1006 29.71 836 24.69 7.2 44.9 64 0.9 33.6
02:20 1007 29.74 836 24.69 7.2 44.9 67 1.5 34.6
02:25 1006 29.71 836 24.69 6.8 44.3 70 1.7 35
02:30 1006 29.71 836 24.69 6.7 44.1 71 1.8 35.2
02:35 1006 29.71 835 24.66 6.8 44.2 72 2 35.7
02:40 1006 29.71 835 24.66 6.7 44 73 2.1 35.8
02:45 1006 29.71 835 24.66 6.5 43.7 74 2.3 36.1
02:50 1006 29.71 836 24.69 6 42.8 78 2.5 36.4
02:55 1006 29.71 836 24.69 5.6 42.1 79 2.3 36.1
03:00 1006 29.71 836 24.69 5.7 42.3 77 2 35.5
03:05 1006 29.71 835 24.66 6.3 43.3 74 2 35.6
03:10 1006 29.71 835 24.66 6.2 43.2 76 2.3 36.1
03:15 1006 29.71 835 24.66 6.1 43 75 2.1 35.8
03:20 1006 29.71 835 24.66 6.3 43.3 75 2.1 35.8
03:25 1006 29.71 835 24.66 6.2 43.2 75 2.1 35.8
03:30 1006 29.71 835 24.66 6.1 43 75 2.1 35.8
03:35 1006 29.71 835 24.66 6.2 43.2 75 2.2 35.9
03:40 1006 29.71 835 24.66 6.2 43.2 75 2.1 35.9
03:45 1006 29.71 835 24.66 6.3 43.4 75 2.2 35.9
03:50 1006 29.71 835 24.66 6.3 43.3 75 2.2 36
03:55 1006 29.71 835 24.66 6.2 43.1 75 2.1 35.9
04:00 1006 29.71 835 24.66 6.2 43.2 75 2.2 35.9
04:05 1006 29.71 835 24.66 6.2 43.1 76 2.2 36
04:10 1006 29.71 835 24.66 6.1 43 76 2.3 36.1
04:15 1006 29.71 835 24.66 6.1 42.9 77 2.3 36.1
04:20 1006 29.71 835 24.66 6 42.8 77 2.2 36
04:25 1006 29.71 835 24.66 6.1 43 77 2.4 36.3
04:30 1006 29.71 835 24.66 6 42.8 79 2.7 36.8
04:35 1006 29.71 835 24.66 5.1 41.2 85 2.8 37
04:40 1006 29.71 836 24.69 4.8 40.6 87 2.8 37
04:45 1007 29.74 836 24.69 5 41 86 2.9 37.2
04:50 1007 29.74 836 24.69 5.1 41.1 87 3.1 37.6
04:55 1007 29.74 836 24.69 4.7 40.4 88 2.8 37
05:00 1007 29.74 836 24.69 4 39.2 92 2.9 37.1
05:05 1006 29.71 835 24.66 3.7 38.7 93 2.7 36.9
05:10 1006 29.71 835 24.66 3.6 38.5 94 2.7 36.8
05:15 1006 29.71 835 24.66 3.5 38.3 93 2.4 36.4
05:20 1006 29.71 835 24.66 3.2 37.8 92 2.1 35.7
05:25 1006 29.71 835 24.66 3.1 37.5 91 1.8 35.2
05:30 1006 29.71 835 24.66 3.1 37.5 90 1.7 35
05:35 1006 29.71 835 24.66 3.2 37.7 90 1.7 35.1
05:40 1006 29.71 835 24.66 3.3 37.9 90 1.9 35.3
05:45 1006 29.71 835 24.66 3.3 38 91 2 35.6
05:50 1006 29.71 835 24.66 3.1 37.5 94 2.2 35.9
05:55 1006 29.71 835 24.66 3 37.4 93 1.9 35.4
06:00 1006 29.71 835 24.66 3.2 37.8 91 1.8 35.3
06:05 1006 29.71 835 24.66 3.3 37.9 91 2 35.6
06:10 1006 29.71 835 24.66 3.3 38 92 2.1 35.8
06:15 1006 29.71 835 24.66 3.5 38.3 88 1.7 35
06:20 1006 29.71 835 24.66 3.9 38.9 85 1.5 34.7
06:25 1006 29.71 835 24.66 4.1 39.5 83 1.5 34.7
06:30 1006 29.71 835 24.66 4.3 39.7 85 1.9 35.4
06:35 1006 29.71 835 24.66 4.3 39.7 83 1.6 34.9
06:40 1006 29.71 836 24.69 4.4 40 85 2.1 35.7
06:45 1006 29.71 836 24.69 4 39.2 87 2 35.7
06:50 1006 29.71 836 24.69 3.7 38.7 87 1.7 35.1
06:55 1006 29.71 836 24.69 3.6 38.6 88 1.9 35.4
07:00 1006 29.71 835 24.66 3.4 38.2 89 1.7 35.1
07:05 1006 29.71 835 24.66 3.5 38.2 89 1.8 35.3
07:10 1006 29.71 835 24.66 3.5 38.3 89 1.8 35.2
07:15 1006 29.71 835 24.66 3.6 38.5 87 1.6 34.9
07:20 1006 29.71 835 24.66 4 39.1 83 1.3 34.4
07:25 1006 29.71 835 24.66 4.2 39.5 83 1.6 34.9
07:30 1006 29.71 835 24.66 4.2 39.5 83 1.6 34.9
07:35 1006 29.71 835 24.66 4 39.3 85 1.8 35.2
07:40 1006 29.71 835 24.66 4 39.2 84 1.6 34.9
07:45 1006 29.71 835 24.66 3.8 38.9 85 1.6 34.8
07:50 1006 29.71 835 24.66 3.6 38.5 87 1.6 34.8
07:55 1006 29.71 835 24.66 3.6 38.4 86 1.4 34.6
08:00 1006 29.71 835 24.66 3.6 38.5 85 1.2 34.2
08:05 1006 29.71 835 24.66 3.9 39 85 1.5 34.8
08:10 1006 29.71 835 24.66 3.5 38.3 90 1.9 35.5
08:15 1006 29.71 835 24.66 3 37.5 90 1.5 34.7
08:20 1006 29.71 835 24.66 3.4 38 87 1.3 34.4
08:25 1006 29.71 835 24.66 3.9 39 84 1.4 34.6
08:30 1006 29.71 835 24.66 4.3 39.8 83 1.7 35.1
08:35 1006 29.71 835 24.66 4.5 40.1 81 1.6 34.9
08:40 1006 29.71 835 24.66 4.9 40.8 79 1.6 34.8
08:45 1006 29.71 835 24.66 5.2 41.3 80 2 35.6
08:50 1006 29.71 835 24.66 5.4 41.7 80 2.2 35.9
08:55 1006 29.71 835 24.66 5.5 41.9 79 2.1 35.8
09:00 1006 29.71 835 24.66 5.5 42 81 2.6 36.6
09:05 1006 29.71 835 24.66 5.4 41.8 82 2.7 36.8
09:10 1006 29.71 835 24.66 5.7 42.2 79 2.3 36.1
09:15 1006 29.71 835 24.66 6.4 43.4 76 2.5 36.5
09:20 1006 29.71 835 24.66 6.5 43.7 78 3 37.4
09:25 1006 29.71 835 24.66 6.7 44.1 76 2.7 36.9
09:30 1006 29.71 835 24.66 6.8 44.3 74 2.5 36.6
09:35 1006 29.71 835 24.66 7.2 44.9 73 2.7 36.9
09:40 1006 29.71 835 24.66 7.5 45.6 70 2.5 36.5
09:45 1006 29.71 835 24.66 8.2 46.7 66 2.2 36
09:50 1006 29.71 835 24.66 8.3 46.9 68 2.7 36.8
09:55 1006 29.71 835 24.66 8.8 47.8 64 2.3 36.2
10:00 1006 29.71 835 24.66 9.5 49.1 63 2.8 37.1
10:05 1006 29.71 835 24.66 9.5 49.1 61 2.5 36.5
10:10 1006 29.71 835 24.66 10.1 50.1 60 2.6 36.7
10:15 1006 29.71 835 24.66 9.1 48.4 63 2.6 36.7
10:20 1006 29.71 835 24.66 9.7 49.5 60 2.4 36.3
10:25 1006 29.71 835 24.66 10.3 50.5 61 3 37.4
10:30 1006 29.71 835 24.66 8.9 47.9 64 2.4 36.3
10:35 1006 29.71 835 24.66 8.7 47.7 66 2.7 36.8
10:40 1006 29.71 835 24.66 8.7 47.7 65 2.6 36.7
10:45 1006 29.71 835 24.66 9.4 48.9 64 2.9 37.3
10:50 1006 29.71 835 24.66 10.2 50.3 61 3 37.3
10:55 1006 29.71 835 24.66 10.2 50.3 60 2.7 36.9
11:00 1006 29.71 835 24.66 10.4 50.7 59 2.8 37
11:05 1006 29.71 835 24.66 10 50 60 2.7 36.9
11:10 1006 29.71 835 24.66 9 48.1 58 1.3 34.3
11:15 1006 29.71 835 24.66 9.7 49.4 60 2.2 36
11:20 1006 29.71 835 24.66 9 48.1 62 2.1 35.7
11:25 1005 29.68 835 24.66 9.6 49.2 57 1.6 34.9
11:30 1005 29.68 835 24.66 9.6 49.3 59 2.1 35.8
11:35 1005 29.68 835 24.66 9.3 48.8 59 1.8 35.2
11:40 1005 29.68 835 24.66 8.8 47.9 62 1.9 35.5
11:45 1005 29.68 835 24.66 9.4 48.9 58 1.6 34.9
11:50 1005 29.68 835 24.66 9.2 48.5 57 1.1 33.9
11:55 1005 29.68 835 24.66 8.9 48.1 56 0.6 33.1
12:00 1005 29.68 835 24.66 9.6 49.2 51 -0.1 31.9
12:05 1005 29.68 834 24.63 9.7 49.5 49 -0.4 31.3
12:10 1005 29.68 834 24.63 9.8 49.7 49 -0.3 31.4
12:15 1005 29.68 834 24.63 9.9 49.8 52 0.5 32.8
12:20 1005 29.68 834 24.63 9.4 49 52 -0 32
12:25 1005 29.68 834 24.63 9.7 49.4 54 0.8 33.5
12:30 1005 29.68 834 24.63 9.3 48.8 55 0.8 33.4
12:35 1005 29.68 834 24.63 9.1 48.3 53 0.1 32.2
12:40 1005 29.68 834 24.63 9.7 49.4 53 0.5 32.9
12:45 1005 29.68 834 24.63 9.7 49.4 52 0.5 32.8
12:50 1005 29.68 834 24.63 10.8 51.4 49 0.5 32.9
12:55 1005 29.68 834 24.63 11.9 53.4 46 0.6 33.1
13:00 1005 29.68 834 24.63 11.3 52.4 50 1.3 34.4
13:05 1005 29.68 834 24.63 11 51.7 50 1 33.8
13:10 1005 29.68 834 24.63 10.3 50.5 51 0.8 33.4
13:15 1004 29.65 834 24.63 10.4 50.8 49 0.2 32.3
13:20 1004 29.65 834 24.63 11.6 52.8 45 0.1 32.1
13:25 1004 29.65 833 24.6 12.7 54.9 42 0.3 32.5
13:30 1004 29.65 833 24.6 12.3 54.2 43 0.3 32.5
13:35 1004 29.65 833 24.6 12.4 54.2 43 0.1 32.2
13:40 1004 29.65 833 24.6 12.3 54.1 41 -0.6 30.8
13:45 1004 29.65 833 24.6 12.5 54.4 41 -0.2 31.6
13:50 1004 29.65 833 24.6 12.5 54.4 42 -0.1 31.8
13:55 1004 29.65 833 24.6 12 53.5 42 -0.6 31
14:00 1004 29.65 833 24.6 11.8 53.2 44 -0.1 31.8
14:05 1004 29.65 833 24.6 11.1 52 42 -1.3 29.7
14:10 1004 29.65 833 24.6 11.1 52 41 -1.4 29.4
14:15 1004 29.65 833 24.6 11.5 52.7 40 -1.5 29.3
14:20 1004 29.65 833 24.6 11.1 51.9 43 -1.1 30
14:25 1004 29.65 833 24.6 10.7 51.2 42 -1.6 29.1
14:30 1003 29.62 833 24.6 11.5 52.7 39 -1.9 28.7
14:35 1003 29.62 833 24.6 11.7 53.1 40 -1.4 29.4
14:40 1003 29.62 833 24.6 10.9 51.6 42 -1.3 29.6
14:45 1003 29.62 833 24.6 10.6 51 42 -1.9 28.5
14:50 1003 29.62 833 24.6 10.2 50.4 42 -1.9 28.5
14:55 1003 29.62 832 24.57 10.9 51.7 39 -2.4 27.7
15:00 1003 29.62 832 24.57 10.8 51.5 42 -1.7 29
15:05 1003 29.62 832 24.57 10.9 51.6 40 -2 28.3
15:10 1003 29.62 832 24.57 11.1 52.1 40 -1.8 28.8
15:15 1003 29.62 832 24.57 10.8 51.5 39 -2.7 27.1
15:20 1003 29.62 832 24.57 11.3 52.4 39 -2 28.3
15:25 1003 29.62 832 24.57 11.7 53.1 38 -2 28.4
15:30 1003 29.62 832 24.57 11.4 52.5 39 -2 28.3
15:35 1003 29.62 832 24.57 10.6 51 41 -2 28.3
15:40 1003 29.62 832 24.57 10.7 51.2 38 -2.9 26.8
15:45 1003 29.62 832 24.57 11 51.7 39 -2.3 27.9
15:50 1003 29.62 832 24.57 10.8 51.4 41 -1.9 28.5
15:55 1003 29.62 832 24.57 10.3 50.5 41 -2.2 28
16:00 1003 29.62 832 24.57 10.3 50.6 42 -2 28.3
16:05 1003 29.62 832 24.57 10.8 51.5 42 -1.6 29.1
16:10 1003 29.62 832 24.57 10.8 51.5 40 -2.1 28.1
16:15 1003 29.62 832 24.57 11 51.7 40 -2.1 28.3
16:20 1003 29.62 832 24.57 10.9 51.6 40 -2.2 28.1
16:25 1003 29.62 833 24.6 10.8 51.5 41 -2 28.5
16:30 1003 29.62 833 24.6 10.7 51.3 42 -1.7 28.9
16:35 1003 29.62 833 24.6 10.7 51.2 41 -2.1 28.3
16:40 1003 29.62 833 24.6 10.4 50.8 52 1 33.8
16:45 1004 29.65 833 24.6 8.3 46.9 65 2.1 35.8
16:50 1004 29.65 833 24.6 7.3 45.2 67 1.7 35
16:55 1004 29.65 833 24.6 7.2 45 68 1.8 35.3
17:00 1004 29.65 833 24.6 7.3 45.1 68 1.8 35.3
17:05 1004 29.65 833 24.6 7.2 44.9 68 1.6 35
17:10 1004 29.65 833 24.6 7.2 45 66 1.3 34.4
17:15 1004 29.65 834 24.63 7 44.7 70 2 35.7
17:20 1005 29.68 834 24.63 6.9 44.4 71 2 35.7
17:25 1005 29.68 834 24.63 6 42.7 79 2.7 36.8
17:30 1005 29.68 834 24.63 4 39.2 84 1.6 34.8
17:35 1005 29.68 834 24.63 3.6 38.5 87 1.7 35.1
17:40 1005 29.68 834 24.63 3.3 37.9 89 1.6 34.9
17:45 1005 29.68 834 24.63 3.5 38.3 88 1.7 35.1
17:50 1005 29.68 834 24.63 3.8 38.9 86 1.7 35.1
17:55 1005 29.68 834 24.63 4 39.2 86 1.9 35.5
18:00 1005 29.68 834 24.63 4.1 39.4 82 1.4 34.5
18:05 1005 29.68 834 24.63 4.2 39.6 82 1.4 34.5
18:10 1005 29.68 835 24.66 4.3 39.7 84 1.9 35.4
18:15 1006 29.71 835 24.66 4.5 40 87 2.5 36.5
18:20 1006 29.71 835 24.66 4.6 40.3 86 2.4 36.4
18:25 1006 29.71 835 24.66 4.6 40.3 86 2.4 36.4
18:30 1006 29.71 835 24.66 4.3 39.7 86 2.2 35.9
18:35 1006 29.71 835 24.66 3.9 39.1 86 1.8 35.2
18:40 1006 29.71 835 24.66 3.7 38.7 89 2 35.6
18:45 1006 29.71 835 24.66 3.7 38.6 89 2 35.6
18:50 1006 29.71 835 24.66 3.6 38.6 89 2 35.6
18:55 1006 29.71 835 24.66 3.6 38.5 88 1.8 35.3
19:00 1006 29.71 835 24.66 3.5 38.3 89 1.8 35.2
19:05 1006 29.71 836 24.69 3.4 38.2 90 1.9 35.5
19:10 1006 29.71 836 24.69 3.5 38.3 89 1.8 35.2
19:15 1007 29.74 836 24.69 3.5 38.2 89 1.9 35.4
19:20 1006 29.71 836 24.69 3.4 38 90 1.8 35.3
19:25 1007 29.74 836 24.69 3.3 38 90 1.9 35.4
19:30 1007 29.74 836 24.69 3.4 38 89 1.8 35.2
19:35 1007 29.74 836 24.69 3.2 37.8 91 1.8 35.3
19:40 1007 29.74 836 24.69 3.3 37.9 91 1.9 35.4
19:45 1007 29.74 836 24.69 3.2 37.8 90 1.8 35.2
19:50 1007 29.74 836 24.69 3.2 37.8 90 1.8 35.2
19:55 1007 29.74 836 24.69 3.2 37.8 90 1.7 35.1
20:00 1007 29.74 836 24.69 3.1 37.6 90 1.6 34.9
20:05 1007 29.74 837 24.72 2.9 37.3 90 1.4 34.6
20:10 1007 29.74 837 24.72 3 37.4 90 1.5 34.7
20:15 1007 29.74 837 24.72 3 37.4 89 1.5 34.6
20:20 1007 29.74 837 24.72 3 37.5 90 1.5 34.8
20:25 1007 29.74 837 24.72 3.1 37.5 90 1.5 34.8
20:30 1007 29.74 837 24.72 3 37.4 90 1.5 34.8
20:35 1007 29.74 837 24.72 2.9 37.3 91 1.6 34.8
20:40 1007 29.74 837 24.72 2.9 37.1 91 1.6 34.8
20:45 1007 29.74 837 24.72 2.8 37 90 1.2 34.2
20:50 1007 29.74 837 24.72 2.6 36.6 91 1.3 34.4
20:55 1007 29.74 837 24.72 2.4 36.4 93 1.4 34.5
21:00 1008 29.77 837 24.72 2.6 36.6 91 1.2 34.2
21:05 1008 29.77 837 24.72 2.6 36.7 89 1 33.8
21:10 1008 29.77 837 24.72 2.5 36.5 91 1.2 34.2
21:15 1008 29.77 837 24.72 2.5 36.5 91 1.2 34.2
21:20 1008 29.77 837 24.72 2.6 36.6 91 1.2 34.1
21:25 1008 29.77 837 24.72 2.5 36.5 91 1.2 34.2
21:30 1008 29.77 837 24.72 2.4 36.4 91 1.1 33.9
21:35 1008 29.77 837 24.72 2.4 36.3 90 1 33.7
21:40 1007 29.74 837 24.72 2.4 36.3 90 0.9 33.6
21:45 1007 29.74 837 24.72 2.3 36.2 91 1 33.7
21:50 1007 29.74 837 24.72 2.3 36.1 91 1 33.8
21:55 1007 29.74 837 24.72 2.2 36 91 0.9 33.7
22:00 1007 29.74 837 24.72 2.2 35.9 91 0.8 33.5
22:05 1007 29.74 837 24.72 2.1 35.8 92 0.9 33.6
22:10 1007 29.74 837 24.72 2.1 35.7 92 0.8 33.5
22:15 1008 29.77 837 24.72 1.7 35.1 92 0.6 33.1
22:20 1008 29.77 837 24.72 1.5 34.8 93 0.6 33
22:25 1008 29.77 837 24.72 1.4 34.5 95 0.6 33
22:30 1007 29.74 837 24.72 1.3 34.3 94 0.5 32.9
22:35 1008 29.77 837 24.72 1.2 34.1 95 0.4 32.8
22:40 1008 29.77 837 24.72 1.2 34.1 95 0.5 32.8
22:45 1008 29.77 837 24.72 1.3 34.3 94 0.4 32.7
22:50 1008 29.77 837 24.72 1.2 34.1 94 0.3 32.6
22:55 1008 29.77 837 24.72 1 33.7 96 0.3 32.6
23:00 1008 29.77 837 24.72 0.9 33.6 96 0.3 32.5
23:05 1008 29.77 837 24.72 1 33.8 96 0.4 32.7
23:10 1008 29.77 837 24.72 1 33.8 96 0.4 32.6
23:15 1008 29.77 837 24.72 1 33.8 96 0.5 32.8
23:20 1008 29.77 837 24.72 1 33.9 96 0.5 32.8
23:25 1008 29.77 837 24.72 0.9 33.7 96 0.4 32.7
23:30 1008 29.77 837 24.72 0.7 33.3 97 0.2 32.4
23:35 1008 29.77 837 24.72 0.6 33.2 97 0.2 32.3
23:40 1008 29.77 837 24.72 0.6 33.1 97 0.2 32.3
23:45 1008 29.77 837 24.72 0.6 33 97 0.1 32.3
23:50 1008 29.77 837 24.72 0.5 32.9 97 0.2 32.3
23:55 1008 29.77 837 24.72 0.7 33.2 97 0.2 32.3
24:00 1008 29.77 837 24.72 0.8 33.4 96 0.2 32.4